Time;durP1;ratioP1;P1;durP2;ratioP2;P2;SDS_P1;SDS_P2;PMS_P1;PMS_P2;Temp;Humidity;BMP_temperature;BMP_pressure;BME280_temperature;BME280_humidity;BME280_pressure;Samples;Min_cycle;Max_cycle;Signal;HPM_P1;HPM_P2
2021/08/20 00:00:15;;;;;;;47.42;36.65;;;24.40;98.60;;;;;;4996972;28;20067;-85
2021/08/20 00:02:40;;;;;;;49.85;37.70;;;24.30;98.50;;;;;;5014082;28;20050;-85
2021/08/20 00:05:07;;;;;;;45.53;36.95;;;24.30;98.60;;;;;;5014494;28;20034;-85
2021/08/20 00:07:32;;;;;;;44.60;36.13;;;24.30;98.50;;;;;;4996006;28;20038;-85
2021/08/20 00:09:59;;;;;;;48.28;38.40;;;24.30;98.60;;;;;;5014711;28;20030;-85
2021/08/20 00:12:26;;;;;;;45.40;37.55;;;24.30;98.60;;;;;;5012760;28;20033;-85
2021/08/20 00:14:52;;;;;;;47.40;39.03;;;24.30;98.60;;;;;;5014327;28;20148;-85
2021/08/20 00:17:18;;;;;;;48.83;38.75;;;24.30;98.60;;;;;;5014100;28;20228;-88
2021/08/20 00:19:43;;;;;;;50.47;39.95;;;24.30;98.50;;;;;;4995980;28;20041;-85
2021/08/20 00:22:09;;;;;;;49.45;39.55;;;24.30;98.50;;;;;;4980947;28;20037;-85
2021/08/20 00:24:36;;;;;;;47.28;38.92;;;24.30;98.60;;;;;;4995490;28;20030;-85
2021/08/20 00:27:02;;;;;;;49.67;39.05;;;24.30;98.60;;;;;;5012612;28;20057;-84
2021/08/20 00:29:28;;;;;;;50.00;39.63;;;24.30;98.60;;;;;;5012460;28;20034;-84
2021/08/20 00:31:54;;;;;;;51.03;40.55;;;24.30;98.60;;;;;;5013923;28;20061;-84
2021/08/20 00:34:19;;;;;;;51.15;40.03;;;24.30;98.60;;;;;;4996388;28;20513;-85
2021/08/20 00:36:45;;;;;;;49.22;40.38;;;24.30;98.60;;;;;;5011770;28;20034;-84
2021/08/20 00:39:12;;;;;;;47.33;39.20;;;24.30;98.60;;;;;;4980073;28;20112;-84
2021/08/20 00:41:47;;;;;;;47.75;38.53;;;24.30;98.50;;;;;;4996145;28;20034;-84
2021/08/20 00:44:13;;;;;;;45.38;38.58;;;24.30;98.60;;;;;;5014189;28;20073;-84
2021/08/20 00:46:41;;;;;;;48.47;37.78;;;24.30;98.50;;;;;;4995849;28;20391;-84
2021/08/20 00:49:06;;;;;;;49.33;37.95;;;24.30;98.60;;;;;;4996263;28;20041;-84
2021/08/20 00:51:37;;;;;;;46.97;37.08;;;24.30;98.60;;;;;;4995734;28;20456;-84
2021/08/20 00:54:08;;;;;;;48.08;39.28;;;24.30;98.50;;;;;;5012417;28;20033;-84
2021/08/20 00:56:34;;;;;;;45.60;36.75;;;24.30;98.50;;;;;;4996352;28;20029;-84
2021/08/20 00:59:01;;;;;;;45.97;37.88;;;24.30;98.50;;;;;;5012272;28;20073;-84
2021/08/20 01:01:26;;;;;;;49.92;39.50;;;24.30;98.50;;;;;;5011600;28;20034;-85
2021/08/20 01:03:52;;;;;;;45.35;36.30;;;24.30;98.70;;;;;;5012425;28;20034;-85
2021/08/20 01:06:18;;;;;;;44.15;35.85;;;24.30;98.50;;;;;;4995784;28;20034;-84
2021/08/20 01:08:43;;;;;;;47.08;36.17;;;24.30;98.50;;;;;;5012030;28;20582;-85
2021/08/20 01:11:11;;;;;;;43.33;35.13;;;24.30;98.50;;;;;;5011793;28;20030;-84
2021/08/20 01:13:39;;;;;;;43.60;35.35;;;24.30;98.50;;;;;;5011660;28;20030;-84
2021/08/20 01:16:05;;;;;;;44.70;36.15;;;24.30;98.50;;;;;;5013470;28;20026;-84
2021/08/20 01:18:34;;;;;;;41.72;33.38;;;24.30;98.50;;;;;;4995563;28;20030;-84
2021/08/20 01:21:04;;;;;;;44.08;34.55;;;24.30;98.50;;;;;;5013256;28;20096;-84
2021/08/20 01:23:29;;;;;;;42.65;34.90;;;24.30;98.50;;;;;;5011045;28;20542;-85
2021/08/20 01:25:55;;;;;;;42.90;35.03;;;24.30;98.50;;;;;;5013070;28;20041;-84
2021/08/20 01:28:24;;;;;;;41.53;33.60;;;24.30;98.50;;;;;;4995753;28;20108;-84
2021/08/20 01:30:51;;;;;;;38.97;32.38;;;24.30;98.50;;;;;;5012976;28;20028;-84
2021/08/20 01:33:18;;;;;;;42.25;34.15;;;24.30;98.50;;;;;;5012866;28;20109;-84
2021/08/20 01:35:44;;;;;;;43.15;33.78;;;24.30;98.50;;;;;;5012149;28;20690;-84
2021/08/20 01:38:10;;;;;;;38.40;31.58;;;24.30;98.50;;;;;;5016555;28;20036;-84
2021/08/20 01:40:35;;;;;;;39.78;32.20;;;24.30;98.50;;;;;;4999400;28;20125;-84
2021/08/20 01:43:01;;;;;;;40.50;32.28;;;24.30;98.50;;;;;;5015620;28;20030;-84
2021/08/20 01:45:27;;;;;;;37.92;31.85;;;24.30;98.50;;;;;;5015571;28;20471;-88
2021/08/20 01:47:53;;;;;;;37.80;31.05;;;24.30;98.50;;;;;;5015606;28;20530;-84
2021/08/20 01:50:18;;;;;;;38.55;31.00;;;24.30;98.50;;;;;;5015386;28;20034;-84
2021/08/20 01:52:44;;;;;;;37.42;30.75;;;24.30;98.60;;;;;;5015537;28;20073;-84
2021/08/20 01:55:11;;;;;;;36.22;29.85;;;24.30;98.50;;;;;;5017032;28;20022;-84
2021/08/20 01:57:41;;;;;;;35.55;29.67;;;24.30;98.60;;;;;;5024904;28;20030;-84
2021/08/20 02:00:07;;;;;;;35.78;29.52;;;24.30;98.60;;;;;;5019619;28;20030;-85
2021/08/20 02:02:33;;;;;;;35.17;28.25;;;24.30;98.60;;;;;;4982614;28;20076;-85
2021/08/20 02:04:59;;;;;;;33.30;27.85;;;24.30;98.60;;;;;;4998572;28;20033;-85
2021/08/20 02:07:24;;;;;;;34.90;28.98;;;24.30;98.60;;;;;;4998794;28;20226;-85
2021/08/20 02:09:50;;;;;;;34.85;28.80;;;24.30;98.60;;;;;;4998642;28;20073;-85
2021/08/20 02:12:16;;;;;;;34.63;27.75;;;24.30;98.60;;;;;;4999956;28;20534;-85
2021/08/20 02:14:42;;;;;;;37.10;28.38;;;24.30;98.60;;;;;;4998753;28;20029;-85
2021/08/20 02:17:07;;;;;;;32.40;26.92;;;24.30;98.60;;;;;;5014524;28;20033;-85
2021/08/20 02:19:34;;;;;;;32.72;26.70;;;24.30;98.60;;;;;;4998240;28;20038;-85
2021/08/20 02:22:00;;;;;;;31.60;25.80;;;24.30;98.60;;;;;;4998748;28;20124;-85
2021/08/20 02:24:26;;;;;;;33.85;26.80;;;24.30;98.70;;;;;;5016158;28;20033;-85
2021/08/20 02:26:52;;;;;;;31.10;25.92;;;24.30;98.70;;;;;;4998347;28;20049;-85
2021/08/20 02:29:17;;;;;;;31.70;25.63;;;24.30;98.70;;;;;;5015694;28;20030;-85
2021/08/20 02:31:43;;;;;;;29.17;24.52;;;24.30;98.70;;;;;;4998276;28;20463;-85
2021/08/20 02:34:09;;;;;;;31.23;25.30;;;24.30;98.70;;;;;;4982577;28;20037;-85
2021/08/20 02:36:34;;;;;;;30.27;25.08;;;24.30;98.70;;;;;;5014953;28;20377;-85
2021/08/20 02:39:00;;;;;;;28.02;24.35;;;24.30;98.70;;;;;;5014721;28;20131;-85
2021/08/20 02:41:26;;;;;;;30.88;25.02;;;24.30;98.70;;;;;;4998460;28;20037;-85
2021/08/20 02:43:52;;;;;;;29.77;23.48;;;24.30;98.70;;;;;;5000011;28;20388;-85
2021/08/20 02:46:18;;;;;;;27.60;22.98;;;24.30;98.70;;;;;;5014557;28;20037;-84
2021/08/20 02:48:44;;;;;;;27.77;23.27;;;24.30;98.70;;;;;;5013535;28;20034;-85
2021/08/20 02:51:11;;;;;;;29.92;23.55;;;24.30;98.70;;;;;;5014371;28;20040;-84
2021/08/20 02:53:37;;;;;;;28.45;22.88;;;24.30;98.70;;;;;;5015072;28;20100;-85
2021/08/20 02:56:02;;;;;;;27.95;22.67;;;24.30;98.70;;;;;;5014382;28;20112;-84
2021/08/20 02:58:28;;;;;;;24.58;21.52;;;24.30;98.70;;;;;;5014431;28;20544;-85
2021/08/20 03:00:54;;;;;;;24.33;20.70;;;24.30;98.70;;;;;;4982822;28;20026;-84
2021/08/20 03:03:20;;;;;;;25.70;21.70;;;24.30;98.70;;;;;;5017876;28;20054;-84
2021/08/20 03:05:45;;;;;;;24.52;20.33;;;24.30;98.80;;;;;;5014045;28;20399;-85
2021/08/20 03:08:11;;;;;;;26.80;21.50;;;24.30;98.70;;;;;;4997732;28;20492;-84
2021/08/20 03:10:37;;;;;;;26.65;21.73;;;24.30;98.70;;;;;;4997765;28;20099;-86
2021/08/20 03:13:03;;;;;;;26.83;20.77;;;24.30;98.70;;;;;;5015533;28;20391;-83
2021/08/20 03:15:29;;;;;;;24.85;19.90;;;24.30;98.70;;;;;;4998058;28;20168;-85
2021/08/20 03:17:54;;;;;;;24.80;19.77;;;24.30;98.70;;;;;;4997245;28;20496;-85
2021/08/20 03:20:20;;;;;;;22.98;19.00;;;24.30;98.80;;;;;;5014645;28;20058;-85
2021/08/20 03:22:45;;;;;;;24.40;19.92;;;24.30;98.80;;;;;;4997536;28;20392;-85
2021/08/20 03:25:11;;;;;;;22.25;19.27;;;24.30;98.70;;;;;;4981184;28;20221;-85
2021/08/20 03:27:37;;;;;;;22.73;18.60;;;24.30;98.70;;;;;;5014985;28;20034;-84
2021/08/20 03:30:04;;;;;;;22.88;18.85;;;24.30;98.70;;;;;;4997289;28;20034;-85
2021/08/20 03:32:30;;;;;;;20.88;17.48;;;24.30;98.70;;;;;;4997558;28;20061;-85
2021/08/20 03:34:55;;;;;;;20.65;16.98;;;24.30;98.80;;;;;;4998779;28;20472;-85
2021/08/20 03:37:21;;;;;;;21.80;17.70;;;24.20;98.70;;;;;;4997420;28;20423;-84
2021/08/20 03:39:47;;;;;;;20.38;16.88;;;24.30;98.80;;;;;;4997231;28;20040;-84
2021/08/20 03:42:13;;;;;;;21.60;16.88;;;24.30;98.80;;;;;;4997307;28;20360;-83
2021/08/20 03:44:38;;;;;;;20.92;16.52;;;24.30;98.80;;;;;;5014749;28;20030;-85
2021/08/20 03:47:04;;;;;;;17.88;15.82;;;24.30;98.80;;;;;;5013054;28;20026;-85
2021/08/20 03:49:30;;;;;;;19.45;16.50;;;24.30;98.80;;;;;;5013591;28;20036;-85
2021/08/20 03:51:56;;;;;;;21.10;16.15;;;24.30;98.80;;;;;;5014743;28;20033;-86
2021/08/20 03:54:21;;;;;;;18.52;15.95;;;24.20;98.80;;;;;;5013385;28;20136;-85
2021/08/20 03:56:47;;;;;;;18.60;15.20;;;24.20;98.80;;;;;;4996598;28;20418;-86
2021/08/20 03:59:14;;;;;;;19.55;15.73;;;24.30;98.80;;;;;;4995869;28;20030;-85
2021/08/20 04:01:40;;;;;;;19.75;16.08;;;24.30;98.80;;;;;;5013272;28;20172;-85
2021/08/20 04:04:06;;;;;;;19.15;15.05;;;24.30;98.80;;;;;;5014103;28;20120;-85
2021/08/20 04:06:31;;;;;;;18.38;15.18;;;24.30;98.80;;;;;;4997174;28;20124;-86
2021/08/20 04:08:57;;;;;;;19.33;14.32;;;24.20;98.80;;;;;;5021236;28;20042;-85
2021/08/20 04:11:22;;;;;;;18.05;14.57;;;24.20;98.80;;;;;;5019450;28;20065;-86
2021/08/20 04:13:48;;;;;;;17.88;14.48;;;24.20;98.80;;;;;;4996522;28;20030;-86
2021/08/20 04:16:14;;;;;;;16.60;14.00;;;24.20;98.80;;;;;;4996843;28;20057;-85
2021/08/20 04:18:41;;;;;;;16.95;13.25;;;24.20;98.80;;;;;;4996097;28;20084;-85
2021/08/20 04:21:07;;;;;;;17.63;14.60;;;24.20;98.80;;;;;;4996164;28;20050;-85
2021/08/20 04:23:34;;;;;;;16.13;13.70;;;24.30;99.00;;;;;;5012654;28;20113;-85
2021/08/20 04:26:00;;;;;;;17.20;13.75;;;24.30;98.80;;;;;;5013565;28;20527;-85
2021/08/20 04:28:25;;;;;;;15.73;13.65;;;24.30;98.80;;;;;;5012474;28;20080;-85
2021/08/20 04:30:51;;;;;;;16.77;13.98;;;24.20;98.80;;;;;;4995677;28;20061;-85
2021/08/20 04:33:17;;;;;;;15.50;13.80;;;24.30;98.80;;;;;;5023231;28;20037;-85
2021/08/20 04:35:42;;;;;;;19.02;15.00;;;24.30;98.80;;;;;;4996203;28;20030;-85
2021/08/20 04:38:08;;;;;;;17.85;13.98;;;24.20;98.90;;;;;;4996041;28;20048;-85
2021/08/20 04:40:34;;;;;;;18.02;14.57;;;24.30;98.80;;;;;;4997577;28;20030;-85
2021/08/20 04:42:59;;;;;;;18.27;15.10;;;24.30;98.80;;;;;;4996023;28;20461;-84
2021/08/20 04:45:25;;;;;;;18.33;14.90;;;24.20;98.80;;;;;;5012810;28;20077;-85
2021/08/20 04:47:51;;;;;;;20.00;15.50;;;24.20;98.80;;;;;;5012178;28;20443;-85
2021/08/20 04:50:18;;;;;;;20.38;16.33;;;24.20;98.80;;;;;;4995843;28;20325;-84
2021/08/20 04:52:43;;;;;;;20.55;16.15;;;24.30;98.80;;;;;;5012156;28;20064;-85
2021/08/20 04:55:10;;;;;;;21.27;16.77;;;24.20;98.80;;;;;;5012210;28;20058;-84
2021/08/20 04:57:36;;;;;;;20.27;16.58;;;24.20;98.80;;;;;;5011135;28;20046;-84
2021/08/20 05:00:01;;;;;;;20.40;16.92;;;24.20;98.80;;;;;;5013815;28;20456;-84
2021/08/20 05:02:29;;;;;;;20.30;16.73;;;24.30;98.80;;;;;;5013266;28;20053;-85
2021/08/20 05:04:55;;;;;;;22.13;17.30;;;24.30;98.80;;;;;;4994304;28;20077;-85
2021/08/20 05:07:20;;;;;;;24.60;18.23;;;24.20;98.80;;;;;;5011941;28;20038;-85
2021/08/20 05:09:46;;;;;;;23.38;18.10;;;24.20;98.80;;;;;;5011908;28;20026;-85
2021/08/20 05:12:12;;;;;;;22.25;18.40;;;24.20;98.80;;;;;;5011408;28;20120;-85
2021/08/20 05:14:37;;;;;;;22.50;17.73;;;24.30;98.80;;;;;;5013530;28;20030;-85
2021/08/20 05:17:03;;;;;;;20.27;17.80;;;24.30;98.80;;;;;;5011510;28;20037;-85
2021/08/20 05:19:29;;;;;;;22.85;18.20;;;24.20;98.70;;;;;;5011927;28;20026;-85
2021/08/20 05:21:54;;;;;;;23.00;17.95;;;24.30;98.70;;;;;;4995517;28;20179;-85
2021/08/20 05:24:20;;;;;;;22.67;18.65;;;24.20;98.70;;;;;;5011967;28;20038;-85
2021/08/20 05:26:46;;;;;;;23.98;19.30;;;24.20;98.90;;;;;;4995640;28;20427;-85
2021/08/20 05:29:11;;;;;;;25.98;19.13;;;24.20;98.60;;;;;;4995218;28;20123;-85
2021/08/20 05:31:37;;;;;;;24.92;19.77;;;24.20;98.60;;;;;;4997677;28;20464;-85
2021/08/20 05:34:03;;;;;;;26.77;20.55;;;24.30;98.70;;;;;;4978862;28;20049;-84
2021/08/20 05:36:29;;;;;;;25.23;20.20;;;24.20;98.60;;;;;;4995346;28;20475;-85
2021/08/20 05:38:55;;;;;;;25.38;21.00;;;24.20;98.60;;;;;;5011270;28;20026;-85
2021/08/20 05:41:20;;;;;;;25.08;20.27;;;24.20;98.60;;;;;;4996784;28;20056;-84
2021/08/20 05:43:49;;;;;;;25.20;20.50;;;24.20;98.60;;;;;;5011570;28;20407;-85
2021/08/20 05:46:15;;;;;;;24.45;19.77;;;24.20;98.60;;;;;;5011446;28;20062;-85
2021/08/20 05:48:40;;;;;;;24.40;20.20;;;24.20;98.60;;;;;;5011468;28;20598;-85
2021/08/20 05:51:06;;;;;;;22.55;19.05;;;24.20;98.50;;;;;;4980662;28;20050;-85
2021/08/20 05:53:32;;;;;;;26.88;18.50;;;24.20;98.50;;;;;;5013193;28;20405;-85
2021/08/20 05:55:57;;;;;;;22.88;19.70;;;24.30;98.50;;;;;;5011776;28;20030;-85
2021/08/20 05:58:23;;;;;;;20.92;17.45;;;24.20;98.50;;;;;;4993903;28;20121;-85
2021/08/20 06:00:49;;;;;;;25.13;18.58;;;24.20;98.50;;;;;;5011537;28;20041;-85
2021/08/20 06:03:20;;;;;;;19.63;16.92;;;24.20;98.50;;;;;;4995262;28;20026;-85
2021/08/20 06:05:46;;;;;;;22.08;16.67;;;24.20;98.50;;;;;;4995212;28;20038;-85
2021/08/20 06:08:11;;;;;;;19.40;15.63;;;24.20;98.50;;;;;;4994447;28;20049;-84
2021/08/20 06:10:37;;;;;;;20.30;15.75;;;24.20;98.50;;;;;;4995060;28;20060;-85
2021/08/20 06:13:05;;;;;;;21.00;15.25;;;24.20;98.50;;;;;;4994804;28;20034;-85
2021/08/20 06:15:31;;;;;;;17.02;14.30;;;24.20;98.50;;;;;;5011143;28;20030;-84
2021/08/20 06:17:56;;;;;;;17.95;14.20;;;24.20;98.50;;;;;;5011093;28;20395;-88
2021/08/20 06:20:25;;;;;;;15.65;13.35;;;24.20;98.50;;;;;;5016136;28;20060;-85
2021/08/20 06:22:50;;;;;;;14.70;12.93;;;24.20;98.50;;;;;;5017174;28;20038;-85
2021/08/20 06:25:16;;;;;;;15.38;12.65;;;24.20;98.50;;;;;;5015150;28;20022;-84
2021/08/20 06:27:42;;;;;;;15.32;12.50;;;24.30;98.50;;;;;;5017171;28;20108;-84
2021/08/20 06:30:08;;;;;;;13.15;11.60;;;24.20;98.50;;;;;;4982064;28;20475;-85
2021/08/20 06:32:33;;;;;;;13.88;11.60;;;24.20;98.50;;;;;;4998622;28;20448;-84
2021/08/20 06:34:59;;;;;;;13.90;10.80;;;24.20;98.50;;;;;;4999784;28;20042;-85
2021/08/20 06:37:25;;;;;;;14.02;11.05;;;24.20;98.50;;;;;;4998109;28;20038;-85
2021/08/20 06:39:50;;;;;;;13.68;10.25;;;24.20;98.50;;;;;;4998407;28;20084;-85
2021/08/20 06:42:16;;;;;;;11.20;9.50;;;24.30;98.50;;;;;;4983360;28;20069;-84
2021/08/20 06:44:42;;;;;;;10.65;8.80;;;24.20;98.50;;;;;;4998020;28;20030;-85
2021/08/20 06:47:07;;;;;;;11.90;9.48;;;24.20;98.60;;;;;;5014240;28;20026;-86
2021/08/20 06:49:33;;;;;;;9.68;8.48;;;24.20;98.60;;;;;;4981641;28;20391;-84
2021/08/20 06:51:58;;;;;;;9.30;7.97;;;24.20;98.60;;;;;;5003623;28;20337;-85
2021/08/20 06:54:24;;;;;;;10.02;8.45;;;24.30;98.70;;;;;;5015073;28;20041;-84
2021/08/20 06:56:50;;;;;;;9.02;7.60;;;24.20;98.70;;;;;;5014316;28;20030;-85
2021/08/20 06:59:15;;;;;;;8.85;7.13;;;24.30;98.70;;;;;;5014334;28;20381;-84
2021/08/20 07:01:41;;;;;;;7.28;6.53;;;24.30;98.70;;;;;;4997472;28;20452;-83
2021/08/20 15:01:34;;;;;;;1.75;1.40;;;24.60;99.30;;;;;;5234378;23;20147;-89
2021/08/20 15:03:59;;;;;;;2.47;1.48;;;24.60;99.30;;;;;;4850411;29;20503;-90
2021/08/20 15:06:25;;;;;;;1.65;1.40;;;24.60;99.30;;;;;;4866146;29;20041;-90
2021/08/20 15:08:51;;;;;;;2.17;1.40;;;24.60;99.30;;;;;;4850245;29;20045;-89
2021/08/20 15:11:16;;;;;;;2.47;1.58;;;24.60;99.30;;;;;;4850284;29;20033;-90
2021/08/20 15:13:42;;;;;;;1.67;1.30;;;24.60;99.50;;;;;;4882323;29;20032;-90
2021/08/20 15:16:08;;;;;;;1.60;1.40;;;24.60;99.30;;;;;;4865634;29;20057;-91
2021/08/20 15:18:39;;;;;;;2.28;1.40;;;24.60;99.50;;;;;;4882292;29;20391;-89
2021/08/20 15:21:05;;;;;;;2.22;1.35;;;24.60;99.30;;;;;;4882013;29;20029;-90
2021/08/20 15:23:31;;;;;;;1.27;1.17;;;24.60;99.40;;;;;;4849944;29;20044;-89
2021/08/20 15:25:57;;;;;;;1.23;1.05;;;24.60;99.40;;;;;;4881816;29;20029;-88
2021/08/20 15:28:23;;;;;;;2.28;1.60;;;24.70;99.40;;;;;;4882183;29;20494;-89
2021/08/20 15:30:49;;;;;;;2.00;1.52;;;24.60;99.40;;;;;;4850665;29;20063;-90
2021/08/20 15:33:15;;;;;;;1.63;1.30;;;24.60;99.40;;;;;;4882338;29;20204;-90
2021/08/20 15:35:45;;;;;;;1.50;1.40;;;24.70;99.40;;;;;;4850561;29;20060;-89
2021/08/20 15:38:11;;;;;;;1.48;1.20;;;24.70;99.50;;;;;;4867139;29;20402;-90
2021/08/20 15:40:39;;;;;;;1.58;1.35;;;24.70;99.50;;;;;;4837987;29;20069;-89
2021/08/20 15:43:04;;;;;;;2.70;1.80;;;24.70;99.40;;;;;;4884214;29;20025;-89
2021/08/20 15:45:31;;;;;;;1.48;1.38;;;24.70;99.40;;;;;;4866740;29;20048;-89
2021/08/20 15:47:57;;;;;;;1.63;1.48;;;24.70;99.40;;;;;;4882600;29;20124;-89
2021/08/20 15:50:22;;;;;;;1.48;1.38;;;24.70;99.50;;;;;;4882674;29;20098;-89
2021/08/20 15:52:48;;;;;;;1.63;1.38;;;24.70;99.40;;;;;;4865030;29;20466;-90
2021/08/20 15:55:16;;;;;;;1.88;1.55;;;24.70;99.70;;;;;;4849320;29;20490;-90
2021/08/20 15:57:41;;;;;;;1.60;1.50;;;24.70;99.50;;;;;;4865065;29;20041;-89
2021/08/20 16:00:08;;;;;;;2.30;1.52;;;24.70;99.50;;;;;;4834117;29;20033;-89
2021/08/20 16:02:33;;;;;;;1.60;1.50;;;24.70;99.50;;;;;;4880344;29;20057;-89
2021/08/20 16:04:59;;;;;;;1.70;1.60;;;24.70;99.40;;;;;;4881464;29;20114;-90
2021/08/20 16:07:25;;;;;;;2.22;1.70;;;24.70;99.40;;;;;;4864816;29;20093;-90
2021/08/20 16:09:50;;;;;;;2.10;1.90;;;24.70;99.40;;;;;;4864784;29;20040;-90
2021/08/20 16:12:16;;;;;;;2.25;1.63;;;24.70;99.40;;;;;;4864747;29;20112;-90
2021/08/20 16:14:42;;;;;;;1.83;1.70;;;24.70;99.40;;;;;;4881658;29;20096;-91
2021/08/20 16:17:09;;;;;;;2.10;1.90;;;24.70;99.40;;;;;;4864968;29;20116;-90
2021/08/20 16:19:35;;;;;;;2.38;2.17;;;24.70;99.60;;;;;;4865858;29;20029;-91
2021/08/20 16:22:03;;;;;;;3.10;2.67;;;24.70;99.90;;;;;;4883554;29;20518;-91
2021/08/20 16:24:30;;;;;;;3.42;3.13;;;24.70;99.90;;;;;;4882346;29;20084;-90
2021/08/20 16:26:55;;;;;;;3.30;2.97;;;24.70;99.90;;;;;;4882138;29;20475;-91
2021/08/20 16:29:21;;;;;;;3.67;2.92;;;24.70;99.90;;;;;;4865485;29;20044;-92
2021/08/20 16:31:46;;;;;;;3.85;3.50;;;24.70;99.90;;;;;;4834402;29;20041;-92
2021/08/20 16:34:12;;;;;;;3.28;2.92;;;24.70;99.90;;;;;;4849292;29;20077;-92
2021/08/20 16:36:38;;;;;;;3.10;2.80;;;24.70;99.90;;;;;;4864255;29;20089;-91
2021/08/20 16:39:04;;;;;;;3.13;2.83;;;24.70;99.90;;;;;;4864077;29;20033;-91
2021/08/20 16:41:30;;;;;;;4.20;3.28;;;24.60;99.90;;;;;;4880824;29;20527;-92
2021/08/20 16:43:56;;;;;;;4.55;2.90;;;24.60;99.90;;;;;;4880673;29;20029;-90
2021/08/20 16:46:21;;;;;;;3.33;3.00;;;24.60;99.90;;;;;;4848684;29;20033;-90
2021/08/20 16:48:47;;;;;;;3.83;3.10;;;24.60;99.90;;;;;;4880412;29;20048;-92
2021/08/20 16:51:12;;;;;;;4.03;2.97;;;24.60;99.90;;;;;;4848469;29;20402;-91
2021/08/20 16:53:38;;;;;;;3.20;2.70;;;24.60;99.90;;;;;;4848907;29;20033;-91
2021/08/20 16:56:04;;;;;;;4.15;3.55;;;24.60;99.90;;;;;;4848863;29;20045;-91
2021/08/20 16:58:29;;;;;;;4.63;3.38;;;24.60;99.90;;;;;;4864053;29;20476;-91
2021/08/20 17:00:55;;;;;;;5.25;3.70;;;24.60;99.90;;;;;;4864109;29;20037;-91
2021/08/20 17:03:21;;;;;;;5.25;3.70;;;24.60;99.90;;;;;;4863842;29;20037;-91
2021/08/20 17:05:46;;;;;;;4.75;4.10;;;24.60;99.90;;;;;;4864067;29;20106;-91
2021/08/20 17:08:12;;;;;;;3.75;3.42;;;24.60;99.90;;;;;;4847765;29;20033;-89
2021/08/20 17:10:38;;;;;;;4.00;3.58;;;24.60;99.90;;;;;;4864339;29;20157;-91
2021/08/20 17:13:03;;;;;;;3.67;3.28;;;24.60;99.90;;;;;;4880533;29;20506;-91
2021/08/20 17:15:30;;;;;;;3.95;3.55;;;24.60;99.90;;;;;;4880399;29;20033;-92
2021/08/20 17:17:57;;;;;;;5.03;3.65;;;24.60;99.90;;;;;;4864031;29;20041;-92
2021/08/20 17:20:23;;;;;;;4.80;3.60;;;24.60;99.90;;;;;;4863649;29;20394;-91
2021/08/20 17:22:48;;;;;;;3.92;3.63;;;24.60;99.90;;;;;;4848504;29;20120;-91
2021/08/20 17:25:14;;;;;;;4.65;4.20;;;24.60;99.90;;;;;;4848290;29;20384;-90
2021/08/20 17:27:41;;;;;;;4.28;3.88;;;24.60;99.90;;;;;;4848739;29;20390;-92
2021/08/20 17:30:09;;;;;;;5.18;4.38;;;24.60;99.90;;;;;;4863712;29;20033;-92
2021/08/20 17:32:35;;;;;;;4.43;4.03;;;24.60;99.90;;;;;;4864041;29;20032;-91
2021/08/20 17:35:01;;;;;;;5.03;4.03;;;24.60;99.90;;;;;;4848409;29;20048;-92
2021/08/20 17:37:28;;;;;;;4.80;4.30;;;24.60;99.90;;;;;;4863440;29;20044;-92
2021/08/20 17:39:53;;;;;;;5.07;4.57;;;24.50;99.90;;;;;;4863891;29;20116;-91
2021/08/20 17:42:19;;;;;;;4.80;4.40;;;24.60;99.90;;;;;;4863617;29;20081;-91
2021/08/20 17:44:45;;;;;;;5.90;4.50;;;24.60;99.90;;;;;;4879425;29;20037;-92
2021/08/20 17:47:11;;;;;;;4.95;4.45;;;24.50;99.90;;;;;;4863329;29;20045;-91
2021/08/20 17:49:36;;;;;;;5.68;4.50;;;24.50;99.90;;;;;;4861833;29;20437;-92
2021/08/20 17:52:04;;;;;;;5.22;4.72;;;24.60;99.90;;;;;;4862313;29;20044;-91
2021/08/20 17:54:30;;;;;;;5.07;4.57;;;24.60;99.90;;;;;;4863380;29;20033;-92
2021/08/20 17:56:56;;;;;;;7.97;4.70;;;24.60;99.90;;;;;;4863640;29;20417;-91
2021/08/20 17:59:22;;;;;;;6.35;4.95;;;24.50;99.90;;;;;;4880711;29;20037;-91
2021/08/20 18:01:51;;;;;;;4.82;4.25;;;24.50;99.90;;;;;;4873873;29;20138;-92
2021/08/20 18:04:17;;;;;;;5.30;4.80;;;24.60;99.90;;;;;;4868867;29;20033;-90
2021/08/20 18:06:43;;;;;;;5.97;4.70;;;24.60;99.90;;;;;;4845955;29;20030;-91
2021/08/20 18:09:09;;;;;;;5.63;4.80;;;24.50;99.90;;;;;;4829511;29;20186;-91
2021/08/20 18:11:35;;;;;;;5.15;4.65;;;24.50;99.90;;;;;;4829535;29;20081;-92
2021/08/20 18:14:02;;;;;;;5.35;4.85;;;24.50;99.90;;;;;;4861181;29;20045;-91
2021/08/20 18:16:28;;;;;;;5.90;5.03;;;24.50;99.90;;;;;;4860689;29;20034;-91
2021/08/20 18:18:54;;;;;;;5.35;4.65;;;24.50;99.90;;;;;;4830055;29;20396;-89
2021/08/20 18:21:19;;;;;;;5.40;4.82;;;24.50;99.90;;;;;;4847179;29;20079;-92
2021/08/20 18:23:45;;;;;;;5.63;4.55;;;24.50;99.90;;;;;;4864185;29;20177;-91
2021/08/20 18:26:12;;;;;;;5.63;4.93;;;24.50;99.90;;;;;;4832319;29;20411;-91
2021/08/20 18:28:38;;;;;;;4.70;4.20;;;24.50;99.90;;;;;;4848109;29;20040;-92
2021/08/20 18:31:04;;;;;;;5.70;4.95;;;24.50;99.90;;;;;;4848187;29;20148;-91
2021/08/20 18:33:30;;;;;;;5.72;4.75;;;24.50;99.90;;;;;;4848114;29;20064;-90
2021/08/20 18:35:56;;;;;;;5.15;4.28;;;24.60;99.90;;;;;;4847808;29;20037;-90
2021/08/20 18:38:21;;;;;;;5.53;4.80;;;24.60;99.90;;;;;;4864501;29;20049;-91
2021/08/20 18:40:47;;;;;;;5.03;4.25;;;24.50;99.90;;;;;;4848384;29;20049;-91
2021/08/20 18:43:14;;;;;;;5.05;4.47;;;24.60;99.90;;;;;;4850431;29;20029;-90
2021/08/20 18:45:39;;;;;;;5.57;4.78;;;24.50;99.90;;;;;;4864176;29;20448;-90
2021/08/20 18:48:05;;;;;;;4.90;4.40;;;24.60;99.90;;;;;;4847219;29;20048;-91
2021/08/20 18:50:33;;;;;;;5.63;4.65;;;24.60;99.90;;;;;;4847408;29;20037;-90
2021/08/20 18:52:59;;;;;;;5.70;4.93;;;24.60;99.90;;;;;;4862004;29;20030;-90
2021/08/20 18:55:25;;;;;;;5.57;4.50;;;24.60;99.90;;;;;;4850576;29;20053;-88
2021/08/20 18:57:50;;;;;;;4.50;3.88;;;24.60;99.90;;;;;;4864386;29;20048;-90
2021/08/20 19:00:17;;;;;;;4.50;4.10;;;24.60;99.90;;;;;;4847163;29;20112;-90
2021/08/20 19:02:43;;;;;;;4.72;4.28;;;24.60;99.90;;;;;;4859431;29;20389;-90
2021/08/20 19:05:10;;;;;;;4.97;4.47;;;24.60;99.90;;;;;;4862909;29;20042;-90
2021/08/20 19:07:37;;;;;;;6.57;4.70;;;24.60;99.90;;;;;;4862450;29;20057;-90
2021/08/20 19:10:04;;;;;;;4.88;4.38;;;24.60;99.90;;;;;;4886373;29;20124;-90
2021/08/20 19:12:33;;;;;;;5.78;4.93;;;24.60;99.90;;;;;;4865456;29;20480;-90
2021/08/20 19:14:59;;;;;;;5.93;4.47;;;24.60;99.90;;;;;;4865799;29;20121;-91
2021/08/20 19:17:26;;;;;;;5.05;4.55;;;24.60;99.90;;;;;;4882209;29;20028;-90
2021/08/20 19:19:52;;;;;;;5.72;4.55;;;24.60;99.90;;;;;;4865650;29;20482;-90
2021/08/20 19:22:21;;;;;;;5.10;4.60;;;24.60;99.90;;;;;;4882668;29;20037;-94
2021/08/20 19:24:49;;;;;;;5.32;4.82;;;24.60;99.90;;;;;;4868049;29;20911;-92
2021/08/20 19:27:15;;;;;;;6.90;4.85;;;24.60;99.90;;;;;;4881417;29;20029;-91
2021/08/20 19:29:41;;;;;;;6.95;5.30;;;24.60;99.90;;;;;;4864589;29;20073;-91
2021/08/20 19:32:07;;;;;;;4.90;4.47;;;24.50;99.90;;;;;;4881427;29;20037;-92
2021/08/20 19:34:32;;;;;;;5.20;4.68;;;24.50;99.90;;;;;;4849208;29;20060;-91
2021/08/20 19:36:58;;;;;;;4.97;4.47;;;24.50;99.90;;;;;;4865982;29;20061;-92
2021/08/20 19:39:24;;;;;;;5.03;4.53;;;24.50;99.90;;;;;;4865312;29;20097;-92
2021/08/20 19:41:49;;;;;;;6.35;4.95;;;24.50;99.90;;;;;;4865507;29;20175;-93
2021/08/20 19:44:16;;;;;;;5.85;4.78;;;24.50;99.90;;;;;;4874769;29;20040;-92
2021/08/20 19:46:41;;;;;;;5.30;4.80;;;24.50;99.90;;;;;;4884173;29;20064;-92
2021/08/20 19:49:07;;;;;;;6.95;5.47;;;24.50;99.90;;;;;;4848950;29;20069;-92
2021/08/20 19:51:33;;;;;;;5.72;4.97;;;24.50;99.90;;;;;;4865312;29;20037;-91
2021/08/20 19:53:59;;;;;;;5.68;5.00;;;24.50;99.90;;;;;;4881144;29;20044;-92
2021/08/20 19:56:25;;;;;;;5.97;5.38;;;24.50;99.90;;;;;;4881224;29;20037;-92
2021/08/20 19:58:51;;;;;;;6.05;5.10;;;24.50;99.90;;;;;;4881107;29;20045;-92
2021/08/20 20:01:18;;;;;;;7.68;5.32;;;24.50;99.90;;;;;;4881784;29;20053;-92
2021/08/20 20:03:45;;;;;;;7.43;6.07;;;24.40;99.90;;;;;;4864272;29;20037;-92
2021/08/20 20:06:12;;;;;;;6.78;6.15;;;24.40;99.90;;;;;;4864876;29;20037;-92
2021/08/20 20:08:38;;;;;;;8.77;6.35;;;24.40;99.90;;;;;;4864790;29;20048;-92
2021/08/20 20:11:03;;;;;;;6.28;5.32;;;24.40;99.90;;;;;;4865063;29;20097;-92
2021/08/20 20:13:29;;;;;;;5.93;5.38;;;24.40;99.90;;;;;;4865071;29;20033;-92
2021/08/20 20:15:55;;;;;;;6.72;6.03;;;24.40;99.90;;;;;;4849143;29;20035;-91
2021/08/20 20:18:21;;;;;;;6.85;5.72;;;24.40;99.90;;;;;;4865024;29;20630;-92
2021/08/20 20:20:46;;;;;;;6.45;5.85;;;24.40;99.90;;;;;;4864704;29;20108;-91
2021/08/20 20:23:13;;;;;;;8.00;6.13;;;24.40;99.90;;;;;;4864596;29;20563;-92
2021/08/20 20:25:39;;;;;;;7.63;6.82;;;24.40;99.90;;;;;;4881108;29;20072;-92